createdAt,value
2023-01-13T00:00:23.072Z,62.65
2023-01-13T00:02:50.864Z,96.30
2023-01-13T00:05:18.779Z,53.13
2023-01-13T00:07:46.933Z,76.78
2023-01-13T00:10:14.807Z,30.50
2023-01-13T00:12:42.866Z,78.68
2023-01-13T00:15:11.407Z,69.10
2023-01-13T00:17:39.395Z,98.57
2023-01-13T00:20:07.999Z,87.90
2023-01-13T00:22:36.058Z,81.32
2023-01-13T00:25:04.792Z,47.72
2023-01-13T00:27:32.828Z,59.33
2023-01-13T00:30:00.708Z,38.67
2023-01-13T00:32:28.816Z,76.10
2023-01-13T00:34:56.655Z,61.33
2023-01-13T00:37:24.585Z,65.60
2023-01-13T00:39:53.127Z,112.70
2023-01-13T00:42:39.233Z,89.00
2023-01-13T00:45:07.556Z,205.10
2023-01-13T00:47:35.489Z,280.83
2023-01-13T00:50:03.325Z,150.65
2023-01-13T00:52:32.995Z,109.25
2023-01-13T00:55:01.513Z,197.65
2023-01-13T00:57:29.388Z,39.33
2023-01-13T00:59:57.201Z,247.48
2023-01-13T01:02:25.111Z,251.02
2023-01-13T01:04:52.974Z,234.32
2023-01-13T01:07:20.773Z,198.07
2023-01-13T01:09:48.693Z,178.05
2023-01-13T01:12:16.707Z,165.68
2023-01-13T01:14:44.981Z,52.55
2023-01-13T01:17:12.819Z,70.45
2023-01-13T01:19:40.817Z,132.63
2023-01-13T01:22:08.607Z,140.35
2023-01-13T01:24:36.516Z,47.70
2023-01-13T01:27:04.235Z,56.90
2023-01-13T01:29:32.086Z,119.68
2023-01-13T01:31:59.986Z,111.18
2023-01-13T01:34:27.801Z,86.00
2023-01-13T01:36:55.676Z,97.70
2023-01-13T01:39:23.557Z,85.13
2023-01-13T01:42:09.582Z,159.27
2023-01-13T01:44:43.282Z,136.88
2023-01-13T01:47:15.589Z,35.42
2023-01-13T01:49:43.405Z,46.97
2023-01-13T01:52:12.375Z,122.55
2023-01-13T01:54:53.460Z,111.43
2023-01-13T01:57:27.890Z,118.05
2023-01-13T01:59:55.672Z,99.10
2023-01-13T02:02:23.791Z,126.97
2023-01-13T02:04:52.625Z,99.28
2023-01-13T02:07:32.114Z,104.55
2023-01-13T02:10:02.505Z,77.40
2023-01-13T02:12:30.335Z,138.15
2023-01-13T02:15:02.661Z,109.68
2023-01-13T02:18:02.509Z,70.63
2023-01-13T02:20:33.327Z,142.38
2023-01-13T02:23:44.539Z,79.60
2023-01-13T02:26:33.336Z,78.60
2023-01-13T02:29:57.236Z,132.57
2023-01-13T02:32:31.608Z,52.58
2023-01-13T02:35:09.056Z,54.40
2023-01-13T02:37:38.168Z,126.43
2023-01-13T02:40:17.869Z,102.18
2023-01-13T02:43:11.344Z,222.73
2023-01-13T02:45:42.835Z,235.32
2023-01-13T02:48:10.663Z,179.98
2023-01-13T02:50:59.486Z,293.15
2023-01-13T02:53:34.961Z,268.02
2023-01-13T02:56:03.911Z,273.00
2023-01-13T02:58:32.671Z,343.98
2023-01-13T03:01:00.580Z,262.80
2023-01-13T03:03:28.448Z,284.85
2023-01-13T03:06:07.172Z,304.85
2023-01-13T03:08:43.313Z,189.32
2023-01-13T03:11:15.270Z,271.95
2023-01-13T03:14:04.306Z,304.33
2023-01-13T03:16:38.789Z,260.38
2023-01-13T03:19:09.116Z,336.77
2023-01-13T03:21:55.813Z,318.80
2023-01-13T03:24:30.135Z,306.63
2023-01-13T03:27:02.614Z,322.38
2023-01-13T03:29:39.275Z,348.52
2023-01-13T03:32:25.479Z,308.92
2023-01-13T03:35:10.500Z,326.95
2023-01-13T03:37:40.298Z,311.05
2023-01-13T03:40:11.980Z,273.77
2023-01-13T03:42:39.778Z,248.35
2023-01-13T03:45:11.104Z,151.15
2023-01-13T03:47:55.515Z,289.67
2023-01-13T03:50:26.248Z,259.90
2023-01-13T03:52:59.563Z,266.55
2023-01-13T03:55:29.555Z,198.85
2023-01-13T03:58:03.568Z,253.18
2023-01-13T04:00:34.701Z,185.18
2023-01-13T04:03:07.953Z,150.43
2023-01-13T04:05:36.792Z,76.30
2023-01-13T04:08:20.728Z,153.82
2023-01-13T04:10:54.168Z,246.07
2023-01-13T04:13:23.322Z,277.33
2023-01-13T04:15:51.102Z,322.13
2023-01-13T04:18:24.064Z,312.42
2023-01-13T04:20:53.007Z,69.25
2023-01-13T04:23:21.461Z,208.25
2023-01-13T04:25:49.473Z,235.00
2023-01-13T04:28:17.484Z,246.35
2023-01-13T04:30:45.582Z,197.93
2023-01-13T04:33:13.957Z,150.05
2023-01-13T04:35:42.112Z,199.30
2023-01-13T04:38:16.406Z,281.85
2023-01-13T04:40:44.380Z,187.13
2023-01-13T04:43:12.321Z,205.20
2023-01-13T04:45:40.066Z,228.05
2023-01-13T04:48:07.847Z,218.20
2023-01-13T04:50:36.296Z,171.98
2023-01-13T04:53:04.269Z,283.67
2023-01-13T04:55:32.585Z,272.80
2023-01-13T04:58:05.800Z,167.52
2023-01-13T05:00:33.700Z,152.13
2023-01-13T05:03:01.682Z,56.47
2023-01-13T05:05:29.898Z,208.40
2023-01-13T05:07:58.354Z,179.27
2023-01-13T05:10:26.582Z,88.95
2023-01-13T05:13:12.525Z,172.88
2023-01-13T05:15:59.682Z,158.23
2023-01-13T05:18:28.365Z,158.90
2023-01-13T05:20:56.206Z,49.13
2023-01-13T05:23:42.666Z,78.55
2023-01-13T05:26:10.495Z,146.50
2023-01-13T05:28:38.182Z,119.57
2023-01-13T05:31:06.120Z,133.10
2023-01-13T05:33:35.740Z,157.63
2023-01-13T05:36:04.207Z,164.73
2023-01-13T05:38:31.989Z,139.90
2023-01-13T05:41:19.012Z,133.40
2023-01-13T05:43:47.061Z,160.35
2023-01-13T05:46:15.280Z,125.10
2023-01-13T05:48:43.436Z,137.50
2023-01-13T05:51:12.222Z,107.47
2023-01-13T05:53:43.141Z,132.75
2023-01-13T05:56:11.389Z,128.90
2023-01-13T05:58:39.520Z,125.10
2023-01-13T06:01:08.852Z,155.30
2023-01-13T06:03:36.882Z,130.30
2023-01-13T06:06:04.832Z,106.00
2023-01-13T06:08:32.865Z,112.13
2023-01-13T06:11:00.766Z,157.90
2023-01-13T06:13:28.614Z,87.22
2023-01-13T06:15:58.160Z,131.02
2023-01-13T06:18:26.210Z,124.05
2023-01-13T06:20:54.090Z,124.20
2023-01-13T06:23:21.960Z,138.90
2023-01-13T06:26:16.001Z,83.30
2023-01-13T06:28:44.160Z,53.55
2023-01-13T06:31:12.376Z,89.78
2023-01-13T06:33:43.392Z,97.25
2023-01-13T06:36:14.113Z,108.20
2023-01-13T06:38:44.069Z,121.90
2023-01-13T06:41:12.396Z,121.32
2023-01-13T06:43:40.319Z,136.10
2023-01-13T06:46:08.757Z,104.32
2023-01-13T06:48:36.561Z,118.85
2023-01-13T06:51:05.606Z,93.47
2023-01-13T06:53:33.597Z,121.03
2023-01-13T06:56:01.455Z,108.97
2023-01-13T06:58:29.296Z,104.05
2023-01-13T07:01:00.808Z,101.32
2023-01-13T07:03:28.792Z,92.95
2023-01-13T07:05:56.954Z,125.60
2023-01-13T07:08:24.949Z,123.03
2023-01-13T07:10:53.477Z,118.80
2023-01-13T07:13:40.063Z,99.68
2023-01-13T07:16:08.908Z,107.55
2023-01-13T07:18:36.874Z,127.10
2023-01-13T07:21:08.974Z,119.63
2023-01-13T07:23:41.040Z,121.65
2023-01-13T07:26:09.434Z,107.07
2023-01-13T07:28:37.399Z,127.18
2023-01-13T07:31:05.934Z,148.43
2023-01-13T07:33:33.863Z,139.77
2023-01-13T07:36:03.421Z,121.63
2023-01-13T07:38:31.403Z,127.03
2023-01-13T07:41:19.192Z,162.50
2023-01-13T07:43:47.048Z,173.68
2023-01-13T07:46:14.972Z,238.23
2023-01-13T07:48:42.887Z,231.45
2023-01-13T07:51:11.446Z,238.63
2023-01-13T07:53:39.293Z,265.40
2023-01-13T07:56:07.820Z,241.07
2023-01-13T07:58:36.305Z,173.07
2023-01-13T08:01:11.319Z,226.50
2023-01-13T08:03:39.896Z,103.85
2023-01-13T08:06:07.898Z,87.35
2023-01-13T08:08:35.837Z,149.32
2023-01-13T08:11:04.912Z,156.73
2023-01-13T08:13:32.812Z,147.07
2023-01-13T08:16:02.257Z,121.55
2023-01-13T08:18:30.267Z,124.65
2023-01-13T08:21:01.281Z,139.45
2023-01-13T08:23:29.145Z,142.05
2023-01-13T08:26:01.863Z,135.65
2023-01-13T08:28:29.886Z,109.68
2023-01-13T08:31:05.057Z,111.57
2023-01-13T08:33:33.215Z,105.53
2023-01-13T08:36:06.924Z,99.65
2023-01-13T08:38:35.318Z,96.22
2023-01-13T08:41:09.221Z,97.55
2023-01-13T08:43:37.000Z,69.10
2023-01-13T08:46:05.136Z,49.30
2023-01-13T08:48:33.213Z,43.08
2023-01-13T08:51:05.795Z,49.35
2023-01-13T08:56:01.149Z,22.45
2023-01-13T08:58:29.077Z,54.05
2023-01-13T09:00:57.301Z,50.13
2023-01-13T09:03:25.347Z,52.17
2023-01-13T09:05:53.183Z,51.85
2023-01-13T09:08:21.884Z,41.05
2023-01-13T09:10:49.932Z,46.25
2023-01-13T09:13:17.772Z,52.95
2023-01-13T09:15:46.255Z,54.67
2023-01-13T09:18:14.126Z,58.30
2023-01-13T09:20:42.190Z,48.45
2023-01-13T09:23:11.145Z,19.48
2023-01-13T09:25:39.986Z,43.65
2023-01-13T09:28:08.921Z,47.17
2023-01-13T09:30:37.713Z,48.80
2023-01-13T09:33:23.721Z,40.58
2023-01-13T09:35:51.727Z,36.58
2023-01-13T09:38:19.589Z,44.33
2023-01-13T09:40:48.384Z,43.78
2023-01-13T09:43:42.880Z,40.83
2023-01-13T09:46:47.561Z,34.80
2023-01-13T09:49:22.686Z,42.67
2023-01-13T09:51:59.563Z,35.63
2023-01-13T09:54:42.684Z,30.45
2023-01-13T09:57:17.806Z,47.65
2023-01-13T09:59:45.731Z,47.35
2023-01-13T10:02:34.653Z,58.53
2023-01-13T10:05:32.813Z,50.13
2023-01-13T10:08:05.723Z,54.45
2023-01-13T10:10:54.177Z,47.33
2023-01-13T10:13:30.668Z,28.13
2023-01-13T10:16:06.008Z,60.95
2023-01-13T10:18:38.335Z,57.33
2023-01-13T10:21:17.819Z,59.35
2023-01-13T10:24:09.424Z,52.58
2023-01-13T10:26:37.096Z,22.13
2023-01-13T10:29:25.429Z,23.67
2023-01-13T10:31:54.418Z,18.23
2023-01-13T10:34:23.020Z,20.67
2023-01-13T10:37:06.857Z,13.68
2023-01-13T10:39:45.741Z,16.48
2023-01-13T10:42:22.460Z,18.95
2023-01-13T10:44:54.359Z,33.97
2023-01-13T10:47:27.679Z,26.50
2023-01-13T10:50:13.403Z,20.88
2023-01-13T10:52:43.959Z,35.80
2023-01-13T10:55:32.434Z,28.52
2023-01-13T10:58:19.388Z,34.67
2023-01-13T11:00:47.481Z,28.67
2023-01-13T11:03:24.832Z,39.63
2023-01-13T11:05:59.829Z,33.45
2023-01-13T11:08:29.670Z,24.40
2023-01-13T11:10:59.264Z,35.40
2023-01-13T11:13:35.247Z,31.02
2023-01-13T11:16:05.883Z,32.25
2023-01-13T11:19:12.382Z,38.83
2023-01-13T11:22:20.837Z,41.08
2023-01-13T11:24:54.821Z,33.70
2023-01-13T11:27:32.028Z,45.50
2023-01-13T11:30:26.477Z,54.42
2023-01-13T11:33:16.110Z,48.40
2023-01-13T11:36:02.359Z,19.50
2023-01-13T11:38:54.487Z,30.73
2023-01-13T11:41:33.133Z,60.80
2023-01-13T11:44:31.574Z,50.15
2023-01-13T11:46:59.377Z,46.00
2023-01-13T11:49:50.235Z,53.80
2023-01-13T11:52:35.684Z,48.85
2023-01-13T11:55:22.848Z,60.97
2023-01-13T11:58:33.807Z,70.07
2023-01-13T12:01:23.029Z,61.75
2023-01-13T12:04:08.635Z,56.80
2023-01-13T12:06:38.626Z,51.42
2023-01-13T12:09:46.758Z,39.08
2023-01-13T12:12:20.507Z,34.97
2023-01-13T12:14:55.982Z,46.25
2023-01-13T12:17:32.170Z,48.40
2023-01-13T12:19:59.861Z,51.15
2023-01-13T12:22:29.853Z,44.25
2023-01-13T12:25:06.436Z,45.97
2023-01-13T12:27:57.116Z,45.88
2023-01-13T12:30:28.430Z,50.72
2023-01-13T12:32:59.574Z,38.97
2023-01-13T12:35:39.724Z,49.10
2023-01-13T12:38:23.460Z,33.65
2023-01-13T12:41:09.816Z,42.00
2023-01-13T12:43:56.466Z,19.92
2023-01-13T12:46:24.915Z,37.55
2023-01-13T12:48:57.129Z,32.40
2023-01-13T12:51:38.373Z,45.13
2023-01-13T12:54:38.278Z,27.95
2023-01-13T12:57:26.712Z,32.00
2023-01-13T13:00:00.752Z,45.03
2023-01-13T13:02:33.391Z,43.47
2023-01-13T13:07:50.148Z,58.67
2023-01-13T13:10:32.183Z,66.55
2023-01-13T13:13:18.928Z,61.40
2023-01-13T13:15:50.717Z,41.15
2023-01-13T13:18:18.534Z,27.67
2023-01-13T13:21:09.335Z,27.35
2023-01-13T13:23:48.360Z,23.05
2023-01-13T13:26:23.276Z,17.45
2023-01-13T13:29:29.559Z,22.73
2023-01-13T13:32:31.525Z,19.45
2023-01-13T13:35:21.431Z,17.38
2023-01-13T13:38:32.082Z,22.13
2023-01-13T13:41:18.308Z,24.48
2023-01-13T13:44:04.985Z,20.92
2023-01-13T13:46:49.342Z,20.73
2023-01-13T13:49:22.258Z,18.40
2023-01-13T13:52:05.141Z,16.08
2023-01-13T13:57:01.459Z,20.98
2023-01-13T13:59:34.036Z,24.58
2023-01-13T14:04:34.136Z,26.08
2023-01-13T14:07:21.029Z,33.90
2023-01-13T14:09:51.385Z,110.07
2023-01-13T14:12:27.419Z,124.50
2023-01-13T14:14:57.963Z,129.90
2023-01-13T14:17:27.450Z,131.38
2023-01-13T14:20:02.859Z,144.27
2023-01-13T14:22:30.651Z,122.90
2023-01-13T14:24:58.879Z,135.52
2023-01-13T14:27:28.092Z,136.98
2023-01-13T14:29:56.855Z,131.15
2023-01-13T14:32:28.923Z,162.27
2023-01-13T14:34:56.750Z,146.13
2023-01-13T14:37:39.710Z,126.25
2023-01-13T14:40:36.557Z,104.18
2023-01-13T14:43:10.874Z,127.03
2023-01-13T14:45:38.823Z,118.43
2023-01-13T14:48:08.826Z,89.97
2023-01-13T14:50:36.810Z,90.45
2023-01-13T14:53:05.566Z,89.47
2023-01-13T14:55:34.286Z,89.32
2023-01-13T14:58:37.753Z,79.20
2023-01-13T15:01:29.538Z,45.75
2023-01-13T15:04:17.313Z,38.70
2023-01-13T15:06:48.783Z,33.08
2023-01-13T15:09:23.773Z,19.45
2023-01-13T15:11:54.718Z,15.45
2023-01-13T15:14:32.049Z,13.30
2023-01-13T15:16:59.921Z,25.58
2023-01-13T15:19:27.725Z,19.42
2023-01-13T15:21:55.536Z,22.75
2023-01-13T15:24:23.558Z,15.35
2023-01-13T15:26:51.521Z,20.02
2023-01-13T15:29:20.892Z,28.63
2023-01-13T15:31:48.809Z,22.77
2023-01-13T15:34:16.572Z,26.40
2023-01-13T15:36:44.516Z,34.65
2023-01-13T15:39:12.309Z,17.98
2023-01-13T15:41:58.558Z,25.27
2023-01-13T15:44:46.134Z,27.33
2023-01-13T15:47:14.834Z,23.20
2023-01-13T15:49:45.915Z,23.02
2023-01-13T15:52:22.628Z,21.85
2023-01-13T15:54:51.204Z,17.23
2023-01-13T15:57:33.173Z,15.60
2023-01-13T16:00:27.239Z,11.97
2023-01-13T16:02:55.130Z,9.50
2023-01-13T16:05:23.070Z,11.95
2023-01-13T16:07:50.906Z,13.82
2023-01-13T16:10:26.619Z,20.40
2023-01-13T16:12:56.228Z,18.25
2023-01-13T16:15:25.316Z,19.33
2023-01-13T16:18:01.025Z,18.35
2023-01-13T16:20:29.080Z,22.45
2023-01-13T16:22:57.030Z,22.02
2023-01-13T16:25:26.491Z,27.15
2023-01-13T16:27:54.554Z,18.75
2023-01-13T16:30:29.822Z,17.80
2023-01-13T16:32:58.049Z,18.40
2023-01-13T16:35:25.989Z,8.90
2023-01-13T16:37:54.442Z,12.85
2023-01-13T16:40:25.403Z,15.75
2023-01-13T16:42:53.410Z,19.85
2023-01-13T16:45:21.241Z,15.05
2023-01-13T16:47:49.268Z,10.65
2023-01-13T16:50:34.552Z,13.93
2023-01-13T16:53:03.482Z,13.88
2023-01-13T16:55:31.253Z,9.40
2023-01-13T16:57:59.142Z,14.65
2023-01-13T17:00:27.046Z,8.82
2023-01-13T17:02:54.801Z,10.88
2023-01-13T17:05:22.595Z,19.70
2023-01-13T17:07:50.264Z,15.52
2023-01-13T17:10:23.373Z,16.17
2023-01-13T17:12:51.187Z,5.88
2023-01-13T17:15:19.547Z,10.25
2023-01-13T17:17:49.255Z,13.85
2023-01-13T17:20:17.061Z,6.90
2023-01-13T17:22:47.511Z,6.78
2023-01-13T17:25:17.709Z,10.05
2023-01-13T17:27:45.460Z,7.75
2023-01-13T17:30:16.243Z,9.40
2023-01-13T17:32:44.076Z,7.07
2023-01-13T17:35:13.735Z,6.55
2023-01-13T17:37:41.643Z,9.20
2023-01-13T17:40:10.410Z,8.60
2023-01-13T17:42:38.320Z,7.32
2023-01-13T17:45:07.428Z,11.00
2023-01-13T17:47:35.354Z,9.15
2023-01-13T17:50:04.557Z,7.43
2023-01-13T17:52:32.316Z,13.07
2023-01-13T17:55:00.183Z,8.05
2023-01-13T17:57:28.138Z,10.77
2023-01-13T17:59:55.892Z,8.10
2023-01-13T18:02:23.596Z,14.73
2023-01-13T18:04:51.422Z,9.70
2023-01-13T18:07:19.180Z,7.40
2023-01-13T18:09:47.053Z,11.55
2023-01-13T18:12:15.026Z,6.13
2023-01-13T18:14:43.008Z,5.82
2023-01-13T18:17:11.032Z,6.10
2023-01-13T18:19:56.824Z,15.30
2023-01-13T18:22:42.854Z,8.63
2023-01-13T18:25:32.564Z,15.57
2023-01-13T18:28:02.986Z,11.85
2023-01-13T18:30:30.990Z,9.02
2023-01-13T18:32:58.947Z,13.15
2023-01-13T18:35:26.911Z,10.75
2023-01-13T18:37:54.741Z,9.95
2023-01-13T18:40:22.701Z,9.57
2023-01-13T18:42:54.721Z,8.70
2023-01-13T18:45:27.668Z,8.50
2023-01-13T18:50:23.914Z,8.52
2023-01-13T18:52:51.920Z,8.30
2023-01-13T18:55:19.795Z,7.05
2023-01-13T18:57:47.723Z,6.03
2023-01-13T19:00:17.784Z,6.35
2023-01-13T19:02:47.635Z,6.20
2023-01-13T19:05:15.424Z,7.70
2023-01-13T19:07:46.771Z,8.32
2023-01-13T19:10:14.786Z,9.73
2023-01-13T19:12:42.662Z,6.20
2023-01-13T19:15:10.988Z,9.75
2023-01-13T19:17:38.850Z,6.35
2023-01-13T19:20:07.174Z,7.28
2023-01-13T19:22:35.309Z,6.13
2023-01-13T19:25:03.508Z,8.32
2023-01-13T19:27:31.522Z,9.27
2023-01-13T19:30:01.482Z,6.10
2023-01-13T19:32:32.715Z,8.38
2023-01-13T19:35:01.358Z,6.05
2023-01-13T19:37:30.696Z,5.20
2023-01-13T19:40:01.781Z,7.57
2023-01-13T19:42:47.873Z,7.38
2023-01-13T19:45:28.092Z,8.30
2023-01-13T19:47:56.391Z,3.70
2023-01-13T19:50:24.764Z,7.57
2023-01-13T19:52:52.617Z,5.55
2023-01-13T19:55:20.295Z,5.85
2023-01-13T19:57:48.177Z,4.50
2023-01-13T20:00:20.883Z,8.75
2023-01-13T20:02:49.948Z,5.43
2023-01-13T20:05:21.563Z,7.68
2023-01-13T20:07:50.489Z,10.17
2023-01-13T20:10:19.551Z,8.13
2023-01-13T20:12:47.353Z,8.23
2023-01-13T20:15:15.367Z,12.70
2023-01-13T20:17:43.160Z,6.55
2023-01-13T20:20:12.288Z,5.80
2023-01-13T20:22:40.361Z,6.72
2023-01-13T20:25:09.061Z,8.75
2023-01-13T20:27:37.098Z,4.03
2023-01-13T20:30:06.194Z,4.00
2023-01-13T20:32:33.830Z,5.93
2023-01-13T20:35:01.545Z,3.83
2023-01-13T20:37:29.318Z,5.20
2023-01-13T20:39:58.549Z,7.00
2023-01-13T20:42:44.614Z,5.43
2023-01-13T20:45:21.997Z,4.03
2023-01-13T20:47:49.855Z,3.47
2023-01-13T20:50:17.867Z,2.85
2023-01-13T20:52:45.766Z,4.00
2023-01-13T20:55:13.965Z,2.85
2023-01-13T20:57:42.303Z,3.95
2023-01-13T21:00:10.959Z,7.60
2023-01-13T21:02:40.046Z,3.58
2023-01-13T21:05:08.447Z,5.13
2023-01-13T21:07:36.193Z,4.50
2023-01-13T21:10:04.446Z,5.40
2023-01-13T21:12:50.258Z,4.88
2023-01-13T21:15:18.000Z,4.22
2023-01-13T21:18:04.965Z,4.47
2023-01-13T21:20:34.286Z,4.00
2023-01-13T21:23:02.759Z,3.70
2023-01-13T21:25:31.280Z,3.65
2023-01-13T21:28:04.617Z,4.43
2023-01-13T21:30:32.986Z,4.38
2023-01-13T21:33:01.199Z,6.38
2023-01-13T21:35:28.880Z,7.70
2023-01-13T21:37:56.682Z,5.88
2023-01-13T21:40:24.454Z,4.47
2023-01-13T21:43:10.554Z,1.67
2023-01-13T21:45:57.910Z,3.67
2023-01-13T21:48:25.872Z,2.42
2023-01-13T21:50:53.722Z,3.40
2023-01-13T21:53:21.492Z,6.35
2023-01-13T21:55:54.875Z,6.57
2023-01-13T21:58:22.669Z,4.53
2023-01-13T22:00:50.584Z,5.03
2023-01-13T22:03:19.146Z,6.95
2023-01-13T22:05:47.495Z,7.13
2023-01-13T22:08:15.307Z,5.18
2023-01-13T22:10:58.244Z,4.90
2023-01-13T22:13:45.859Z,4.22
2023-01-13T22:16:14.594Z,4.88
2023-01-13T22:18:42.382Z,5.05
2023-01-13T22:21:11.270Z,6.55
2023-01-13T22:23:39.180Z,1.92
2023-01-13T22:26:07.520Z,3.78
2023-01-13T22:28:40.994Z,4.70
2023-01-13T22:31:15.673Z,6.00
2023-01-13T22:33:43.640Z,5.28
2023-01-13T22:36:11.569Z,15.45
2023-01-13T22:38:39.453Z,5.95
2023-01-13T22:41:08.291Z,4.70
2023-01-13T22:43:36.783Z,4.68
2023-01-13T22:46:07.393Z,2.92
2023-01-13T22:48:35.372Z,6.00
2023-01-13T22:51:10.386Z,4.28
2023-01-13T22:53:38.477Z,6.30
2023-01-13T22:56:06.647Z,5.28
2023-01-13T22:58:34.572Z,8.10
2023-01-13T23:01:10.223Z,7.68
2023-01-13T23:03:38.047Z,6.30
2023-01-13T23:06:06.417Z,8.10
2023-01-13T23:08:34.630Z,12.20
2023-01-13T23:11:03.783Z,10.55
2023-01-13T23:13:31.611Z,13.60
2023-01-13T23:16:04.174Z,9.23
2023-01-13T23:21:10.830Z,6.50
2023-01-13T23:23:38.829Z,10.77
2023-01-13T23:26:07.541Z,9.95
2023-01-13T23:28:35.792Z,6.68
2023-01-13T23:31:11.309Z,10.63
2023-01-13T23:33:41.573Z,10.00
2023-01-13T23:36:13.397Z,6.07
2023-01-13T23:38:41.696Z,5.05
2023-01-13T23:41:10.610Z,6.03
2023-01-13T23:43:38.507Z,6.03
2023-01-13T23:46:08.220Z,6.15
2023-01-13T23:48:36.250Z,8.23
2023-01-13T23:51:06.132Z,4.20
2023-01-13T23:53:40.209Z,11.68
2023-01-13T23:56:11.467Z,5.30
2023-01-13T23:58:39.152Z,7.00
